Latest Weather Observations for Dunalley

IDT60901

Issued at 3:21 pm EDT Tuesday 28 March 2017 (issued every 10 minutes, with the page automatically refreshed every 10 minutes)

About weather observations | Map of Hobart area stations | Latest observations for Hobart area | Other Formats
Station Details ID: 094254 Name: DUNALLEY (STROUD POINT) Lat: -42.90 Lon: 147.79 Height: 12.43 m
Data from the previous 72 hours. | See also: Recent months at Dunalley
Date/Time
EDT
Temp
°C
App
Temp
°C
Dew
Point
°C
Rel
Hum
%
Delta-T
°C
Wind Press
QNH
hPa
Press
MSL
hPa
Rain since
9am
mm
Dir  Spd
km/h
Gust
km/h
Spd
kts
Gust
kts
28/03:02pm 24.7 18.9 7.8 34 9.0 WNW 28 48 15 26 1003.7 1003.7 0.0
28/03:00pm 24.2 18.0 7.8 35 8.7 WNW 30 48 16 26 1003.8 1003.8 0.0
28/02:36pm 23.9 17.2 7.5 35 8.6 WNW 32 50 17 27 1003.9 1003.9 0.0
28/02:30pm 23.8 17.1 7.4 35 8.6 WNW 32 43 17 23 1004.0 1004.0 0.0
28/02:00pm 23.6 16.9 8.1 37 8.2 WNW 33 54 18 29 1004.3 1004.3 0.0
28/01:31pm 22.8 15.6 7.8 38 7.9 WNW 35 56 19 30 1004.5 1004.5 0.0
28/01:30pm 22.8 15.7 8.1 39 7.7 WNW 35 54 19 29 1004.5 1004.5 0.0
28/01:09pm 22.7 16.3 8.4 40 7.6 WNW 32 52 17 28 1004.8 1004.8 0.0
28/01:00pm 22.2 14.4 8.3 41 7.3 W 39 52 21 28 1004.9 1004.9 0.0
28/12:30pm 21.6 14.5 8.1 42 7.1 WNW 35 59 19 32 1005.3 1005.3 0.0
28/12:00pm 21.4 14.1 8.7 44 6.7 WNW 37 59 20 32 1005.5 1005.5 0.0
28/11:37am 21.7 15.3 8.6 43 6.9 WNW 32 50 17 27 1005.6 1005.6 0.0
28/11:30am 21.0 14.0 8.3 44 6.6 WNW 35 48 19 26 1005.6 1005.6 0.0
28/11:20am 20.8 14.6 7.8 43 6.7 NW 30 52 16 28 1005.7 1005.7 0.0
28/11:00am 20.1 13.9 7.8 45 6.4 WNW 30 44 16 24 1005.9 1005.9 0.0
28/10:45am 19.6 13.7 7.4 45 6.2 WNW 28 50 15 27 1006.0 1006.0 0.0
28/10:30am 19.4 13.1 7.5 46 6.1 WNW 30 44 16 24 1006.1 1006.1 0.0
28/10:00am 18.9 13.7 7.4 47 5.9 WNW 24 37 13 20 1006.0 1006.0 0.0
28/09:30am 18.0 14.1 7.1 49 5.5 WNW 17 33 9 18 1006.3 1006.3 0.0
28/09:00am 17.2 13.2 6.7 50 5.2 NW 17 30 9 16 1006.1 1006.1 2.0
28/08:30am 15.9 12.3 6.9 55 4.4 NW 15 24 8 13 1006.0 1006.0 2.0
28/08:00am 15.1 11.9 6.7 57 4.1 NW 13 22 7 12 1005.9 1005.9 2.0
28/07:30am 14.0 10.8 6.8 62 3.5 NNW 13 20 7 11 1005.7 1005.7 2.0
28/07:00am 12.7 10.6 6.7 67 2.9 NNE 7 13 4 7 1005.3 1005.3 2.0
28/06:30am 13.4 9.2 7.6 68 2.8 NE 19 26 10 14 1005.1 1005.1 2.0
28/06:00am 13.7 10.2 7.2 65 3.2 NNE 15 22 8 12 1004.9 1004.9 2.0
28/05:30am 14.2 10.9 6.6 60 3.7 NNW 13 17 7 9 1004.8 1004.8 2.0
28/05:00am 14.8 11.1 6.4 57 4.1 NW 15 22 8 12 1004.6 1004.6 2.0
28/04:30am 15.4 10.9 6.2 54 4.4 NW 19 26 10 14 1004.2 1004.2 2.0
28/04:00am 15.0 10.5 6.3 56 4.2 NW 19 30 10 16 1003.7 1003.7 2.0
28/03:30am 15.2 10.1 6.2 55 4.3 NW 22 33 12 18 1004.1 1004.1 2.0
28/03:00am 13.5 10.1 6.1 61 3.5 NNW 13 17 7 9 1004.5 1004.5 2.0
28/02:30am 14.2 11.7 6.6 60 3.7 N 9 13 5 7 1004.1 1004.1 2.0
28/02:00am 14.3 11.0 6.2 58 3.9 N 13 22 7 12 1004.3 1004.3 2.0
28/01:30am 15.5 11.4 6.2 54 4.5 NW 17 24 9 13 1004.3 1004.3 2.0
28/01:00am 15.4 11.5 7.2 58 4.1 NNW 17 30 9 16 1004.4 1004.4 2.0
28/12:30am 15.8 11.9 7.3 57 4.2 NW 17 32 9 17 1004.0 1004.0 2.0
28/12:00am 16.0 12.1 7.0 55 4.5 NNW 17 30 9 16 1004.0 1004.0 2.0
 
Date/Time
EDT
Temp
°C
App
Temp
°C
Dew
Point
°C
Rel
Hum
%
Delta-T
°C
Wind Press
QNH
hPa
Press
MSL
hPa
Rain since
9am
mm
Dir  Spd
km/h
Gust
km/h
Spd
kts
Gust
kts
27/11:30pm 16.2 11.9 7.2 55 4.5 NW 19 30 10 16 1003.9 1003.9 2.0
27/11:00pm 15.2 12.5 7.5 60 3.8 NNW 11 20 6 11 1003.5 1003.5 2.0
27/10:30pm 15.8 12.3 7.3 57 4.2 N 15 30 8 16 1003.3 1003.3 2.0
27/10:00pm 16.5 9.3 7.7 56 4.4 WNW 35 63 19 34 1002.3 1002.3 2.0
27/09:53pm 16.6 8.9 7.0 53 4.8 WNW 37 63 20 34 1001.8 1001.8 2.0
27/09:47pm 16.5 8.9 7.7 56 4.4 WNW 37 46 20 25 1001.9 1001.9 2.0
27/09:30pm 16.2 12.2 8.2 59 4.1 NNW 19 30 10 16 1002.7 1002.7 2.0
27/09:00pm 16.5 13.6 8.0 57 4.3 NW 13 22 7 12 1002.2 1002.2 2.0
27/08:30pm 15.6 13.6 6.9 56 4.3 NW 7 13 4 7 1001.7 1001.7 2.0
27/08:00pm 16.5 13.0 7.2 54 4.6 WNW 15 24 8 13 1001.2 1001.2 2.0
27/07:30pm 16.3 11.8 7.0 54 4.6 WNW 20 33 11 18 1000.7 1000.7 2.0
27/07:00pm 16.4 11.5 8.4 59 4.1 W 24 37 13 20 1000.4 1000.4 2.0
27/06:30pm 16.8 10.1 8.0 56 4.5 WNW 33 54 18 29 999.1 999.1 2.0
27/06:00pm 16.6 8.2 9.1 61 3.9 WNW 43 61 23 33 998.4 998.4 2.0
27/05:38pm 16.0 8.5 9.4 65 3.4 WNW 39 59 21 32 998.5 998.5 2.0
27/05:30pm 15.4 7.7 10.0 70 2.8 WNW 41 59 22 32 998.5 998.5 2.0
27/05:00pm 15.5 6.9 10.3 71 2.8 WNW 46 70 25 38 998.8 998.8 1.6
27/04:30pm 17.6 9.7 11.4 67 3.4 WNW 44 63 24 34 999.0 999.0 0.8
27/04:11pm 19.4 11.4 11.2 59 4.5 WNW 44 63 24 34 998.4 998.4 0.8
27/04:00pm 20.0 11.6 11.0 56 5.0 WNW 46 63 25 34 997.9 997.9 0.8
27/03:31pm 19.2 13.6 14.5 74 2.7 NW 37 57 20 31 997.4 997.4 0.8
27/03:30pm 19.2 13.2 14.5 74 2.7 NW 39 56 21 30 997.5 997.5 0.8
27/03:24pm 19.4 12.6 14.9 75 2.6 WNW 44 76 24 41 997.4 997.4 0.8
27/03:05pm 22.0 16.4 15.4 66 3.9 NNW 39 87 21 47 996.4 996.4 0.4
27/03:04pm 24.5 20.0 16.5 61 4.9 NNW 35 85 19 46 995.9 995.9 0.2
27/03:00pm 27.9 23.9 15.2 46 7.8 NNW 30 54 16 29 994.5 994.5 0.0
27/02:30pm 28.9 22.8 15.1 43 8.4 NNW 41 63 22 34 994.5 994.5 0.0
27/02:00pm 27.9 23.4 14.9 45 7.9 NNE 32 61 17 33 995.0 995.0 0.0
27/01:51pm 27.4 24.0 15.7 48 7.2 NE 28 46 15 25 995.2 995.2 0.0
27/01:30pm 22.3 17.9 16.6 70 3.5 NE 35 48 19 26 995.9 995.9 0.0
27/01:00pm 22.8 18.5 15.9 65 4.2 NE 33 43 18 23 996.6 996.6 0.0
27/12:30pm 24.0 20.7 15.0 57 5.4 NNE 26 41 14 22 997.8 997.8 0.0
27/12:00pm 20.3 17.9 16.5 79 2.3 NE 24 32 13 17 999.0 999.0 0.0
27/11:30am 19.9 16.5 16.7 82 1.9 NE 30 37 16 20 999.2 999.2 0.0
27/11:00am 19.9 17.0 16.2 79 2.2 NE 26 35 14 19 1000.1 1000.1 0.0
27/10:30am 20.6 17.2 15.8 74 2.9 NE 28 35 15 19 1000.6 1000.6 0.0
27/10:00am 21.8 19.5 15.6 68 3.7 ENE 22 32 12 17 1001.8 1001.8 0.0
27/09:30am 20.4 18.5 15.2 72 3.1 NE 19 28 10 15 1002.6 1002.6 0.0
27/09:00am 19.1 16.9 14.8 76 2.5 NE 20 26 11 14 1003.5 1003.5 0.0
27/08:30am 18.6 16.6 14.9 79 2.2 NE 19 30 10 16 1003.7 1003.7 0.0
27/08:00am 17.7 14.2 14.6 82 1.8 NE 26 32 14 17 1004.0 1004.0 0.0
27/07:30am 17.3 14.5 14.4 83 1.7 NE 22 28 12 15 1004.4 1004.4 0.0
27/07:00am 17.2 14.9 14.7 85 1.4 NE 20 24 11 13 1005.0 1005.0 0.0
27/06:30am 17.1 15.1 14.9 87 1.3 NE 19 22 10 12 1005.7 1005.7 0.0
27/06:00am 16.9 14.2 14.7 87 1.3 NNE 22 26 12 14 1006.2 1006.2 0.0
27/05:30am 16.5 14.4 14.7 89 1.0 NNE 19 22 10 12 1006.5 1006.5 0.0
27/05:00am 16.3 13.7 14.8 91 0.9 NE 22 28 12 15 1006.6 1006.6 0.0
27/04:30am 16.2 13.9 14.6 90 0.9 NE 20 26 11 14 1007.1 1007.1 0.0
27/04:00am 16.2 14.9 14.7 91 0.9 NE 15 22 8 12 1007.7 1007.7 0.0
27/03:30am 15.9 15.2 14.4 91 0.9 ENE 11 17 6 9 1008.2 1008.2 0.0
27/03:00am 16.1 15.8 14.5 90 0.9 ENE 9 13 5 7 1008.9 1008.9 0.0
27/02:30am 16.2 15.9 14.4 89 1.0 ENE 9 15 5 8 1009.7 1009.7 0.0
27/02:00am 16.3 15.7 14.5 89 1.0 NE 11 19 6 10 1009.8 1009.8 0.0
27/01:30am 16.5 14.4 14.7 89 1.0 NE 19 24 10 13 1010.3 1010.3 0.0
27/01:00am 16.9 16.1 15.2 90 1.0 NNE 13 19 7 10 1010.8 1010.8 0.0
27/12:30am 16.9 14.8 15.2 90 1.0 NE 20 28 11 15 1011.2 1011.2 0.0
27/12:00am 17.0 15.1 15.3 90 1.0 NE 19 24 10 13 1011.9 1011.9 0.0
 
Date/Time
EDT
Temp
°C
App
Temp
°C
Dew
Point
°C
Rel
Hum
%
Delta-T
°C
Wind Press
QNH
hPa
Press
MSL
hPa
Rain since
9am
mm
Dir  Spd
km/h
Gust
km/h
Spd
kts
Gust
kts
26/11:30pm 17.1 15.2 15.3 89 1.0 ENE 19 26 10 14 1012.6 1012.6 0.0
26/11:00pm 17.0 17.6 15.2 89 1.0 NNE 6 13 3 7 1013.2 1013.2 0.0
26/10:30pm 17.0 13.0 15.2 89 1.0 NE 30 39 16 21 1012.8 1012.8 0.0
26/10:00pm 16.9 11.8 14.9 88 1.2 ENE 35 43 19 23 1012.9 1012.9 0.0
26/09:30pm 16.9 12.4 14.9 88 1.2 NE 32 39 17 21 1013.4 1013.4 0.0
26/09:00pm 16.9 12.3 15.2 90 1.0 NE 33 41 18 22 1013.3 1013.3 0.0
26/08:30pm 16.9 11.9 15.1 89 1.0 NE 35 43 19 23 1013.1 1013.1 0.0
26/08:00pm 17.0 12.0 15.0 88 1.2 NE 35 43 19 23 1013.3 1013.3 0.0
26/07:30pm 17.1 12.7 15.1 88 1.2 NE 32 39 17 21 1013.4 1013.4 0.0
26/07:00pm 17.3 13.3 15.1 87 1.3 NE 30 35 16 19 1013.4 1013.4 0.0
26/06:30pm 17.8 14.9 15.2 85 1.5 NE 24 30 13 16 1013.5 1013.5 0.0
26/06:00pm 18.5 14.9 15.2 81 1.9 NE 28 33 15 18 1013.4 1013.4 0.0
26/05:30pm 19.1 16.2 15.0 77 2.4 NE 24 30 13 16 1013.7 1013.7 0.0
26/05:00pm 20.1 17.1 14.9 72 3.0 NE 24 30 13 16 1013.7 1013.7 0.0
26/04:30pm 20.3 15.9 14.0 67 3.6 NE 30 33 16 18 1013.6 1013.6 0.0
26/04:00pm 20.8 17.4 13.7 64 4.1 NE 24 30 13 16 1013.9 1013.9 0.0
26/03:30pm 20.9 17.0 14.3 66 3.8 NE 28 32 15 17 1014.1 1014.1 0.0
26/03:00pm 21.6 18.7 14.0 62 4.4 NE 22 30 12 16 1014.3 1014.3 0.0
26/02:30pm 22.2 18.7 13.3 57 5.1 NE 24 28 13 15 1014.4 1014.4 0.0
26/02:00pm 22.1 18.7 13.7 59 4.9 NE 24 28 13 15 1014.5 1014.5 0.0
26/01:30pm 21.9 19.1 13.3 58 4.9 NE 20 24 11 13 1015.0 1015.0 0.0
26/01:00pm 21.1 21.2 13.8 63 4.2 NE 6 15 3 8 1015.5 1015.5 0.0
26/12:30pm 19.7 19.6 13.2 66 3.7 NE 6 7 3 4 1015.4 1015.4 0.0
26/12:00pm 19.0 18.8 13.0 68 3.4 NE 6 7 3 4 1015.8 1015.8 0.0
26/11:30am 18.4 18.2 13.1 71 3.0 NE 6 6 3 3 1016.0 1016.0 0.0
26/11:00am 17.8 17.7 13.3 75 2.5 NE 6 9 3 5 1016.0 1016.0 0.0
26/10:30am 17.8 17.6 13.7 77 2.3 NE 7 7 4 4 1016.1 1016.1 0.0
26/10:00am 16.5 16.3 13.6 83 1.6 NE 7 9 4 5 1016.0 1016.0 0.0
26/09:30am 16.2 16.2 14.2 88 1.1 NE 7 9 4 5 1015.8 1015.8 0.0
26/09:00am 15.5 15.4 13.9 90 0.9 NE 7 9 4 5 1015.5 1015.5 0.0
26/08:30am 14.9 14.9 13.6 92 0.7 NE 6 6 3 3 1015.1 1015.1 0.0
26/08:00am 14.0 14.2 12.9 93 0.6 NE 4 6 2 3 1014.7 1014.7 0.0
26/07:30am 13.4 12.8 12.3 93 0.6 NE 7 7 4 4 1014.4 1014.4 0.0
26/07:00am 13.3 12.6 12.0 92 0.7 NE 7 9 4 5 1014.0 1014.0 0.0
26/06:30am 13.6 13.2 12.3 92 0.7 NE 6 7 3 4 1013.7 1013.7 0.0
26/06:00am 14.2 14.4 12.9 92 0.7 NE 4 4 2 2 1013.8 1013.8 0.0
26/05:30am 14.0 14.4 12.6 91 0.8 NE 2 4 1 2 1013.7 1013.7 0.0
26/05:00am 13.9 13.5 12.5 91 0.8 NE 6 7 3 4 1013.7 1013.7 0.0
26/04:30am 13.9 13.5 12.3 90 0.9 NE 6 7 3 4 1013.7 1013.7 0.0
26/04:00am 14.4 14.9 12.8 90 0.9 NE 2 4 1 2 1013.7 1013.7 0.0
26/03:30am 14.2 15.0 12.6 90 0.9 CALM 0 0 0 0 1013.7 1013.7 0.0
26/03:00am 14.0 14.8 12.4 90 0.9 CALM 0 0 0 0 1013.8 1013.8 0.0
26/02:30am 14.3 15.2 12.9 91 0.8 CALM 0 0 0 0 1013.7 1013.7 0.0
26/02:00am 14.8 15.8 13.3 91 0.8 CALM 0 0 0 0 1013.8 1013.8 0.0
26/01:30am 14.7 15.7 13.1 90 0.9 CALM 0 0 0 0 1013.7 1013.7 0.0
26/01:00am 14.6 15.1 12.8 89 1.0 NE 2 4 1 2 1013.7 1013.7 0.0
26/12:30am 15.2 15.2 13.7 91 0.8 NE 6 6 3 3 1013.7 1013.7 0.0
26/12:00am 15.2 15.1 13.4 89 1.0 NE 6 6 3 3 1013.7 1013.7 0.0
 
Date/Time
EDT
Temp
°C
App
Temp
°C
Dew
Point
°C
Rel
Hum
%
Delta-T
°C
Wind Press
QNH
hPa
Press
MSL
hPa
Rain since
9am
mm
Dir  Spd
km/h
Gust
km/h
Spd
kts
Gust
kts
25/11:30pm 15.6 15.5 13.8 89 1.0 NE 7 9 4 5 1013.6 1013.6 0.0
25/11:00pm 15.4 15.1 13.4 88 1.1 NE 7 9 4 5 1013.7 1013.7 0.0
25/10:30pm 15.9 15.9 13.7 87 1.2 NE 6 6 3 3 1013.6 1013.6 0.0
25/10:00pm 15.8 15.8 13.6 87 1.2 NE 6 7 3 4 1013.4 1013.4 0.0
25/09:30pm 16.9 16.6 14.4 85 1.4 NE 9 13 5 7 1013.2 1013.2 0.0
25/09:00pm 17.4 16.4 14.5 83 1.7 NE 13 15 7 8 1012.9 1012.9 0.0
25/08:30pm 17.5 16.2 14.8 84 1.6 NE 15 19 8 10 1012.7 1012.7 0.0
25/08:00pm 17.7 16.5 15.1 85 1.5 NE 15 17 8 9 1012.5 1012.5 0.0
25/07:30pm 17.6 16.3 14.9 84 1.6 ENE 15 17 8 9 1012.4 1012.4 0.0
25/07:00pm 18.0 16.7 14.9 82 1.8 ENE 15 17 8 9 1012.2 1012.2 0.0
25/06:30pm 18.1 16.4 14.8 81 1.9 NE 17 20 9 11 1012.0 1012.0 0.0
25/06:00pm 18.3 15.6 14.6 79 2.1 NE 22 26 12 14 1011.8 1011.8 0.0
25/05:30pm 19.1 16.8 14.1 73 2.9 NE 19 22 10 12 1011.9 1011.9 0.0
25/05:00pm 19.2 16.2 13.8 71 3.1 NE 22 26 12 14 1011.8 1011.8 0.0
25/04:30pm 19.2 16.2 13.8 71 3.1 NE 22 26 12 14 1012.0 1012.0 0.0
25/04:00pm 19.1 16.7 13.7 71 3.1 NE 19 22 10 12 1012.3 1012.3 0.0
25/03:30pm 19.1 15.1 13.1 68 3.4 NE 26 30 14 16 1012.2 1012.2 0.0

Latest Capital City Observations: Canberra | Sydney | Melbourne | Brisbane | Adelaide | Perth | Hobart | Darwin

Other Formats:

Comma delimited format used in spreadsheet applications
http://www.bom.gov.au/fwo/IDT60901/IDT60901.94951.axf

JavaScript Object Notation format (JSON) in row-major order
http://www.bom.gov.au/fwo/IDT60901/IDT60901.94951.json